Time;durP1;ratioP1;P1;durP2;ratioP2;P2;SDS_P1;SDS_P2;PMS_P1;PMS_P2;Temp;Humidity;BMP_temperature;BMP_pressure;BME280_temperature;BME280_humidity;BME280_pressure;Samples;Min_cycle;Max_cycle;Signal;HPM_P1;HPM_P2
2023/09/09 00:01:03;;;;;;;127.80;70.63;;;;;;;-142.75;100.00;75863.66;4992137;28;20030;-63
2023/09/09 00:03:28;;;;;;;138.07;77.35;;;;;;;-142.75;100.00;75847.94;4989252;28;20076;-62
2023/09/09 00:05:54;;;;;;;138.02;80.35;;;;;;;-142.75;100.00;75822.34;4989222;28;20474;-63
2023/09/09 00:08:19;;;;;;;149.82;83.85;;;;;;;-142.75;100.00;75826.28;4989288;28;20117;-64
2023/09/09 00:10:45;;;;;;;129.52;72.10;;;;;;;-142.75;100.00;75818.41;4988727;28;20014;-63
2023/09/09 00:13:11;;;;;;;132.32;74.22;;;;;;;-142.75;100.00;75824.31;4988991;28;20026;-63
2023/09/09 00:15:37;;;;;;;135.60;75.57;;;;;;;-142.75;100.00;75828.25;4988898;28;20031;-63
2023/09/09 00:18:03;;;;;;;110.97;64.13;;;;;;;-142.75;100.00;75840.06;4989231;28;20045;-63
2023/09/09 00:20:29;;;;;;;127.03;70.93;;;;;;;-142.75;100.00;75849.91;4988699;28;20038;-63
2023/09/09 00:22:55;;;;;;;136.13;77.65;;;;;;;-142.75;100.00;75855.81;5007248;28;20061;-63
2023/09/09 00:25:20;;;;;;;125.28;71.57;;;;;;;-142.75;100.00;75851.88;5008409;28;20473;-62
2023/09/09 00:27:45;;;;;;;133.60;75.30;;;;;;;-142.75;100.00;75849.91;5008507;28;20030;-63
2023/09/09 00:30:11;;;;;;;153.45;86.60;;;;;;;-142.75;100.00;75845.97;5008057;28;20160;-63
2023/09/09 00:32:36;;;;;;;148.90;82.28;;;;;;;-142.75;100.00;75830.22;5006984;28;20091;-63
2023/09/09 00:35:02;;;;;;;156.13;85.03;;;;;;;-142.75;100.00;75830.22;5007135;28;20049;-61
2023/09/09 00:37:27;;;;;;;151.38;83.85;;;;;;;-142.75;100.00;75830.22;4999904;28;20023;-60
2023/09/09 00:39:53;;;;;;;147.18;83.03;;;;;;;-142.75;100.00;75838.09;5006329;28;20557;-61
2023/09/09 00:42:18;;;;;;;103.05;58.30;;;;;;;-142.75;100.00;75883.34;5008157;28;20028;-60
2023/09/09 00:44:43;;;;;;;112.38;65.93;;;;;;;-142.75;100.00;75897.13;5007765;28;20032;-60
2023/09/09 00:47:09;;;;;;;107.88;61.03;;;;;;;-142.75;100.00;75936.50;5007983;28;20113;-61
2023/09/09 00:49:34;;;;;;;116.50;64.40;;;;;;;-142.75;100.00;75932.56;5007614;28;20057;-61
2023/09/09 00:52:00;;;;;;;110.78;63.38;;;;;;;-142.75;100.00;75956.19;5008006;28;20028;-61
2023/09/09 00:54:26;;;;;;;113.05;63.65;;;;;;;-142.75;100.00;75948.31;5007930;28;20026;-63
2023/09/09 00:56:51;;;;;;;130.13;73.90;;;;;;;-142.75;100.00;75940.44;5008028;28;20088;-63
2023/09/09 00:59:17;;;;;;;130.27;76.82;;;;;;;-142.75;100.00;75936.50;5007393;28;20120;-63
2023/09/09 01:01:44;;;;;;;139.38;77.38;;;;;;;-142.75;100.00;75926.66;5007794;28;20022;-62
2023/09/09 01:04:09;;;;;;;142.68;77.57;;;;;;;-142.75;100.00;75916.81;5007809;28;20025;-63
2023/09/09 01:06:36;;;;;;;141.80;80.32;;;;;;;-142.75;100.00;75908.94;5007966;28;20075;-62
2023/09/09 01:09:06;;;;;;;142.98;81.60;;;;;;;-142.75;100.00;75901.06;5007634;28;20032;-62
2023/09/09 01:11:31;;;;;;;158.90;87.28;;;;;;;-142.75;100.00;75897.13;5007647;28;20493;-63
2023/09/09 01:13:56;;;;;;;151.75;82.93;;;;;;;-142.75;100.00;75895.16;4996184;28;20031;-61
2023/09/09 01:16:22;;;;;;;138.50;78.32;;;;;;;-142.75;100.00;75885.31;4990317;28;20148;-61
2023/09/09 01:18:48;;;;;;;133.80;75.07;;;;;;;-142.75;100.00;75895.16;5007252;28;20699;-61
2023/09/09 01:21:17;;;;;;;117.60;68.57;;;;;;;-142.75;100.00;75918.78;5028018;22;20029;-63
2023/09/09 01:23:42;;;;;;;108.45;61.53;;;;;;;-142.75;100.00;75946.34;4968521;28;20042;-63
2023/09/09 01:26:08;;;;;;;99.68;58.67;;;;;;;-142.75;100.00;75983.72;4974137;28;20028;-61
2023/09/09 01:28:33;;;;;;;96.78;56.90;;;;;;;-142.75;100.00;75975.84;4968556;28;20047;-63
2023/09/09 01:30:59;;;;;;;108.53;60.67;;;;;;;-142.75;100.00;75967.97;4972088;28;20034;-63
2023/09/09 01:33:24;;;;;;;113.03;64.80;;;;;;;-142.75;100.00;75975.84;4969456;28;20474;-62
2023/09/09 01:35:49;;;;;;;121.82;69.57;;;;;;;-142.75;100.00;75964.03;4966936;28;20093;-63
2023/09/09 01:38:15;;;;;;;120.55;69.22;;;;;;;-142.75;100.00;75967.97;4970214;28;20498;-62
2023/09/09 01:40:40;;;;;;;123.55;72.97;;;;;;;-142.75;100.00;75966.00;4975357;28;20080;-61
2023/09/09 01:43:06;;;;;;;123.10;71.60;;;;;;;-142.75;100.00;75956.19;4987768;28;20066;-65
2023/09/09 01:45:31;;;;;;;152.85;84.90;;;;;;;-142.75;100.00;75940.44;4974386;28;20025;-61
2023/09/09 01:47:57;;;;;;;186.55;96.47;;;;;;;-142.75;100.00;75912.88;4968565;28;20045;-64
2023/09/09 01:50:22;;;;;;;175.57;94.30;;;;;;;-142.75;100.00;75875.47;4970597;28;20065;-64
2023/09/09 01:52:47;;;;;;;187.18;99.28;;;;;;;-142.75;100.00;75855.81;4985591;28;20485;-63
2023/09/09 01:55:13;;;;;;;182.98;97.47;;;;;;;-142.75;100.00;75845.97;4985958;28;20021;-65
2023/09/09 01:57:38;;;;;;;167.98;90.35;;;;;;;-142.75;100.00;75855.81;4987246;28;20030;-60
2023/09/09 02:00:07;;;;;;;139.85;80.35;;;;;;;-142.75;100.00;75873.50;4987208;28;20113;-63
2023/09/09 02:02:33;;;;;;;141.13;79.65;;;;;;;-142.75;100.00;75914.84;4987394;28;20045;-63
2023/09/09 02:04:58;;;;;;;91.10;54.97;;;;;;;-142.75;100.00;75944.38;4987041;28;20474;-61
2023/09/09 02:07:24;;;;;;;100.38;57.70;;;;;;;-142.75;100.00;75967.97;4985924;28;20044;-64
2023/09/09 02:09:49;;;;;;;106.95;60.60;;;;;;;-142.75;100.00;75977.81;4970475;28;20045;-63
2023/09/09 02:12:14;;;;;;;96.07;58.10;;;;;;;-142.75;100.00;75977.81;4967761;28;20030;-62
2023/09/09 02:14:40;;;;;;;122.60;67.78;;;;;;;-142.75;100.00;75975.84;4968165;28;20094;-63
2023/09/09 02:17:05;;;;;;;145.63;81.00;;;;;;;-142.75;100.00;75967.97;4974113;28;20389;-66
2023/09/09 02:19:31;;;;;;;154.68;86.47;;;;;;;-142.75;100.00;75964.03;4987059;28;20019;-61
2023/09/09 02:21:56;;;;;;;137.00;76.60;;;;;;;-142.75;100.00;75969.94;4986804;28;20042;-62
2023/09/09 02:24:22;;;;;;;147.13;83.97;;;;;;;-142.75;100.00;75960.13;4980106;28;20138;-64
2023/09/09 02:26:47;;;;;;;154.32;84.35;;;;;;;-142.75;100.00;75962.09;4968955;28;20047;-61
2023/09/09 02:29:13;;;;;;;152.45;86.88;;;;;;;-142.75;100.00;75954.22;4967255;28;20022;-62
2023/09/09 02:31:38;;;;;;;155.10;88.25;;;;;;;-142.75;100.00;75948.31;4973350;28;20454;-63
2023/09/09 02:34:03;;;;;;;152.80;85.43;;;;;;;-142.75;100.00;75944.38;5000926;28;20058;-63
2023/09/09 02:36:29;;;;;;;150.63;86.07;;;;;;;-142.75;100.00;75938.47;4987039;28;20079;-63
2023/09/09 02:38:54;;;;;;;146.10;86.68;;;;;;;-142.75;100.00;75934.53;4985646;28;20034;-63
2023/09/09 02:41:19;;;;;;;161.48;88.45;;;;;;;-142.75;100.00;75926.66;4986420;28;20158;-63
2023/09/09 02:43:45;;;;;;;139.40;81.50;;;;;;;-142.75;100.00;75928.63;4986972;28;20201;-62
2023/09/09 02:46:11;;;;;;;123.22;70.70;;;;;;;-142.75;100.00;75950.28;4986763;28;20493;-64
2023/09/09 02:48:36;;;;;;;111.80;64.88;;;;;;;-142.75;100.00;75971.91;4986614;28;20105;-60
2023/09/09 02:51:01;;;;;;;117.38;70.70;;;;;;;-142.75;100.00;75983.72;5001576;28;20105;-64
2023/09/09 02:53:27;;;;;;;118.55;67.60;;;;;;;-142.75;100.00;75960.13;4986772;28;20132;-63
2023/09/09 02:55:52;;;;;;;119.90;71.05;;;;;;;-142.75;100.00;75975.84;4986860;28;20355;-63
2023/09/09 02:58:17;;;;;;;115.10;65.85;;;;;;;-142.75;100.00;75979.78;4973125;28;20402;-63
2023/09/09 03:00:43;;;;;;;117.50;65.80;;;;;;;-142.75;100.00;75979.78;4967121;28;20018;-62
2023/09/09 03:03:08;;;;;;;118.40;67.68;;;;;;;-142.75;100.00;75971.91;5002852;28;20030;-62
2023/09/09 03:05:35;;;;;;;131.18;73.60;;;;;;;-142.75;100.00;75966.00;4977744;28;20098;-63
2023/09/09 03:08:02;;;;;;;123.20;69.55;;;;;;;-142.75;100.00;75975.84;4969828;28;20027;-61
2023/09/09 03:10:27;;;;;;;95.35;56.38;;;;;;;-142.75;100.00;75991.59;4971921;28;20069;-61
2023/09/09 03:12:52;;;;;;;71.43;45.45;;;;;;;-142.75;100.00;76019.16;4989438;28;20425;-63
2023/09/09 03:15:18;;;;;;;64.22;41.15;;;;;;;-142.75;100.00;76025.06;4972162;28;20022;-66
2023/09/09 03:17:43;;;;;;;73.47;46.63;;;;;;;-142.75;100.00;76027.03;4987982;28;20032;-63
2023/09/09 03:20:09;;;;;;;94.32;56.28;;;;;;;-142.75;100.00;76021.13;4982991;28;20127;-62
2023/09/09 03:22:34;;;;;;;116.07;66.85;;;;;;;-142.75;100.00;76005.38;4989793;28;20803;-65
2023/09/09 03:25:00;;;;;;;136.73;76.43;;;;;;;-142.75;100.00;75985.69;4988672;28;20500;-63
2023/09/09 03:27:25;;;;;;;145.02;81.28;;;;;;;-142.75;100.00;75964.03;4989937;28;20022;-61
2023/09/09 03:29:50;;;;;;;157.27;87.20;;;;;;;-142.75;100.00;75936.50;4989731;28;20036;-62
2023/09/09 03:32:16;;;;;;;161.25;87.13;;;;;;;-142.75;100.00;75918.78;4989839;28;20401;-64
2023/09/09 03:34:41;;;;;;;151.10;87.22;;;;;;;-142.75;100.00;75906.97;4989619;28;20018;-63
2023/09/09 03:37:07;;;;;;;151.90;85.57;;;;;;;-142.75;100.00;75912.88;4989700;28;20485;-62
2023/09/09 03:39:32;;;;;;;156.75;87.93;;;;;;;-142.75;100.00;75918.78;4989686;28;20022;-63
2023/09/09 03:41:57;;;;;;;144.80;82.65;;;;;;;-142.75;100.00;75926.66;4989487;28;20022;-62
2023/09/09 03:44:23;;;;;;;137.45;79.07;;;;;;;-142.75;100.00;75926.66;4989321;28;20018;-62
2023/09/09 03:46:48;;;;;;;140.00;82.85;;;;;;;-142.75;100.00;75924.69;4988146;28;20569;-63
2023/09/09 03:49:14;;;;;;;139.48;83.68;;;;;;;-142.75;100.00;75924.69;4976381;28;20054;-60
2023/09/09 03:51:40;;;;;;;98.80;58.75;;;;;;;-142.75;100.00;75956.19;4969887;28;21372;-63
2023/09/09 03:54:05;;;;;;;100.90;58.15;;;;;;;-142.75;100.00;75967.97;4988298;28;20018;-64
2023/09/09 03:56:30;;;;;;;82.15;50.58;;;;;;;-142.75;100.00;75995.53;4988163;28;20026;-62
2023/09/09 03:58:56;;;;;;;77.07;48.90;;;;;;;-142.75;100.00;76015.22;4971850;28;20105;-62
2023/09/09 04:01:21;;;;;;;75.68;46.60;;;;;;;-142.75;100.00;76036.88;4969485;28;20062;-64
2023/09/09 04:03:46;;;;;;;68.80;43.38;;;;;;;-142.75;100.00;76046.72;4986237;28;20077;-65
2023/09/09 04:06:13;;;;;;;62.72;39.70;;;;;;;-142.75;100.00;76074.25;4989255;28;20381;-62
2023/09/09 04:08:39;;;;;;;66.05;41.45;;;;;;;-142.75;100.00;76099.84;4982047;28;20493;-62
2023/09/09 04:11:05;;;;;;;67.28;41.15;;;;;;;-142.75;100.00;76121.50;4969690;28;20031;-62
2023/09/09 04:13:31;;;;;;;58.13;36.90;;;;;;;-142.75;100.00;76125.44;4968835;28;20548;-62
2023/09/09 04:15:58;;;;;;;56.30;34.70;;;;;;;-142.75;100.00;76125.44;4969273;28;20019;-63
2023/09/09 04:18:24;;;;;;;77.93;43.70;;;;;;;-142.75;100.00;76123.47;4969350;28;20027;-60
2023/09/09 04:20:50;;;;;;;77.03;43.88;;;;;;;-142.75;100.00;76131.34;4970696;28;20042;-62
2023/09/09 04:23:16;;;;;;;69.78;41.50;;;;;;;-142.75;100.00;76129.38;4969331;28;20058;-62
2023/09/09 04:25:43;;;;;;;69.43;43.22;;;;;;;-142.75;100.00;76123.47;4969377;28;20022;-61
2023/09/09 04:28:12;;;;;;;74.80;45.03;;;;;;;-142.75;100.00;76111.66;4969777;28;20030;-65
2023/09/09 04:30:38;;;;;;;79.82;45.92;;;;;;;-142.75;100.00;76099.84;4968788;28;20041;-64
2023/09/09 04:33:06;;;;;;;97.47;57.55;;;;;;;-142.75;100.00;76090.00;4969394;28;20121;-62
2023/09/09 04:35:31;;;;;;;135.75;77.45;;;;;;;-142.75;100.00;76050.66;4967947;28;20070;-63
2023/09/09 04:37:56;;;;;;;118.68;70.78;;;;;;;-142.75;100.00;75999.47;4969300;28;20143;-60
2023/09/09 04:40:22;;;;;;;121.03;68.13;;;;;;;-142.75;100.00;75983.72;4968827;28;20478;-62
2023/09/09 04:42:47;;;;;;;88.45;51.03;;;;;;;-142.75;100.00;75981.75;4969147;28;20557;-62
2023/09/09 04:45:12;;;;;;;75.57;46.83;;;;;;;-142.75;100.00;75999.47;4973285;28;20026;-62
2023/09/09 04:47:38;;;;;;;60.25;37.53;;;;;;;-142.75;100.00;76023.09;4988263;28;20089;-65
2023/09/09 04:50:04;;;;;;;56.10;34.85;;;;;;;-142.75;100.00;76058.53;4978218;28;20613;-62
2023/09/09 04:52:29;;;;;;;64.07;40.08;;;;;;;-142.75;100.00;76068.38;4969041;28;20026;-64
2023/09/09 04:54:54;;;;;;;83.15;50.40;;;;;;;-142.75;100.00;76091.97;4980255;28;20077;-66
2023/09/09 04:57:20;;;;;;;71.25;43.88;;;;;;;-142.75;100.00;76090.00;4987960;28;20380;-61
2023/09/09 04:59:45;;;;;;;94.57;57.03;;;;;;;-142.75;100.00;76080.16;4987167;28;20029;-63
2023/09/09 05:02:10;;;;;;;110.82;65.57;;;;;;;-142.75;100.00;76066.41;4987398;28;20076;-62
2023/09/09 05:04:36;;;;;;;119.35;67.13;;;;;;;-142.75;100.00;76064.44;4988036;28;20041;-61
2023/09/09 05:07:01;;;;;;;117.78;69.55;;;;;;;-142.75;100.00;76054.59;4987081;28;20057;-62
2023/09/09 05:09:27;;;;;;;131.63;71.70;;;;;;;-142.75;100.00;76030.97;4987656;28;20026;-63
2023/09/09 05:11:52;;;;;;;84.13;49.63;;;;;;;-142.75;100.00;76027.03;4980330;28;20018;-64
2023/09/09 05:14:18;;;;;;;103.72;59.33;;;;;;;-142.75;100.00;76025.06;4968562;28;20038;-64
2023/09/09 05:16:43;;;;;;;97.88;56.20;;;;;;;-142.75;100.00;76011.28;4968492;28;20483;-61
2023/09/09 05:19:08;;;;;;;79.50;49.72;;;;;;;-142.75;100.00;75975.84;4987160;28;20022;-65
2023/09/09 05:21:34;;;;;;;72.25;45.83;;;;;;;-142.75;100.00;75960.13;4974039;28;20058;-64
2023/09/09 05:23:59;;;;;;;75.88;46.90;;;;;;;-142.75;100.00;75960.13;4970070;28;20040;-61
2023/09/09 05:26:24;;;;;;;65.95;41.63;;;;;;;-142.75;100.00;75946.34;4967213;28;20046;-62
2023/09/09 05:28:50;;;;;;;57.70;40.50;;;;;;;-142.75;100.00;75956.19;4969673;28;20034;-63
2023/09/09 05:31:15;;;;;;;54.28;38.47;;;;;;;-142.75;100.00;75956.19;4967703;28;20029;-61
2023/09/09 05:33:41;;;;;;;54.92;38.65;;;;;;;-142.75;100.00;75956.19;4968365;28;20038;-63
2023/09/09 05:36:06;;;;;;;52.05;38.25;;;;;;;-142.75;100.00;75958.16;4970929;28;20063;-63
2023/09/09 05:38:32;;;;;;;56.25;39.67;;;;;;;-142.75;100.00;75967.97;4986523;28;20030;-66
2023/09/09 05:40:57;;;;;;;55.80;39.90;;;;;;;-142.75;100.00;75967.97;4984625;28;20106;-63
2023/09/09 05:43:22;;;;;;;65.35;43.03;;;;;;;-142.75;100.00;75962.09;4969347;28;20019;-62
2023/09/09 05:45:48;;;;;;;55.45;37.25;;;;;;;-142.75;100.00;75944.38;4967860;28;20029;-65
2023/09/09 05:48:13;;;;;;;67.82;43.42;;;;;;;-142.75;100.00;75936.50;4968012;28;20026;-63
2023/09/09 05:50:38;;;;;;;60.15;40.20;;;;;;;-142.75;100.00;75936.50;4967598;28;20769;-63
2023/09/09 05:53:04;;;;;;;51.42;35.38;;;;;;;-142.75;100.00;75926.66;4967630;28;20030;-66
2023/09/09 05:55:30;;;;;;;71.40;44.53;;;;;;;-142.75;100.00;75916.81;4967018;28;20041;-62
2023/09/09 05:57:55;;;;;;;72.10;46.28;;;;;;;-142.75;100.00;75897.13;4982027;28;20218;-64
2023/09/09 06:00:20;;;;;;;82.00;48.95;;;;;;;-142.75;100.00;75889.25;4986904;28;20045;-65
2023/09/09 06:02:46;;;;;;;83.22;48.58;;;;;;;-142.75;100.00;75881.38;4972118;28;20030;-64
2023/09/09 06:05:13;;;;;;;71.68;45.40;;;;;;;-142.75;100.00;75863.66;4967716;28;20030;-63
2023/09/09 06:07:39;;;;;;;75.07;46.22;;;;;;;-142.75;100.00;75873.50;4985228;28;20035;-65
2023/09/09 06:10:05;;;;;;;76.40;46.33;;;;;;;-142.75;100.00;75893.19;4986802;28;20049;-63
2023/09/09 06:12:30;;;;;;;77.47;47.15;;;;;;;-142.75;100.00;75883.34;4983294;28;21364;-65
2023/09/09 06:14:56;;;;;;;81.05;49.65;;;;;;;-142.75;100.00;75875.47;4977472;28;20373;-63
2023/09/09 06:17:21;;;;;;;34.75;24.58;;;;;;;-142.75;100.00;75881.38;4986743;28;20026;-62
2023/09/09 06:19:46;;;;;;;30.98;21.75;;;;;;;-142.75;100.00;75881.38;4986761;28;20030;-62
2023/09/09 06:22:12;;;;;;;23.17;17.50;;;;;;;-142.75;100.00;75912.88;4970943;28;20015;-64
2023/09/09 06:24:37;;;;;;;26.00;20.02;;;;;;;-142.75;100.00;75916.81;4967021;28;20454;-65
2023/09/09 06:27:03;;;;;;;22.58;19.10;;;;;;;-142.75;100.00;75914.84;4969643;28;20030;-63
2023/09/09 06:29:29;;;;;;;25.10;20.10;;;;;;;-142.75;100.00;75916.81;4985209;28;20034;-64
2023/09/09 06:31:54;;;;;;;26.70;20.55;;;;;;;-142.75;100.00;75926.66;4967250;28;20062;-64
2023/09/09 06:34:21;;;;;;;31.67;24.83;;;;;;;-142.75;100.00;75922.72;4967372;28;20033;-66
2023/09/09 06:36:46;;;;;;;30.10;23.60;;;;;;;-142.75;100.00;75930.59;4969312;28;20422;-64
2023/09/09 06:39:12;;;;;;;39.88;27.70;;;;;;;-142.75;100.00;75934.53;4984081;28;20025;-67
2023/09/09 06:41:37;;;;;;;39.58;28.70;;;;;;;-142.75;100.00;75916.81;4977840;28;20474;-61
2023/09/09 06:44:03;;;;;;;45.00;30.95;;;;;;;-142.75;100.00;75899.09;4990017;28;20022;-63
2023/09/09 06:46:28;;;;;;;45.83;32.00;;;;;;;-142.75;100.00;75869.56;4984797;28;20026;-63
2023/09/09 06:48:54;;;;;;;67.10;43.05;;;;;;;-142.75;100.00;75834.16;4971188;28;20031;-64
2023/09/09 06:51:19;;;;;;;85.65;51.58;;;;;;;-142.75;100.00;75779.03;4973746;28;20034;-62
2023/09/09 06:53:44;;;;;;;63.15;41.50;;;;;;;-142.75;100.00;75771.16;4971190;28;20122;-64
2023/09/09 06:56:10;;;;;;;53.53;35.97;;;;;;;-142.75;100.00;75769.19;4970683;28;20062;-65
2023/09/09 06:58:35;;;;;;;50.80;33.97;;;;;;;-142.75;100.00;75759.38;4971393;28;20026;-65
2023/09/09 07:01:02;;;;;;;54.13;35.10;;;;;;;-142.75;100.00;75771.16;4970785;28;20031;-62
2023/09/09 07:03:28;;;;;;;53.75;36.13;;;;;;;-142.75;100.00;75759.38;4971134;28;20078;-65
2023/09/09 07:05:53;;;;;;;59.22;38.30;;;;;;;-142.75;100.00;75733.78;4971013;28;20027;-62
2023/09/09 07:08:19;;;;;;;68.45;45.10;;;;;;;-142.75;100.00;75720.00;4970898;28;20490;-62
2023/09/09 07:10:51;;;;;;;82.03;50.88;;;;;;;-142.75;100.00;75716.06;4985269;28;20457;-63
2023/09/09 07:13:17;;;;;;;84.38;51.28;;;;;;;-142.75;100.00;75700.31;4988698;28;20033;-65
2023/09/09 07:15:42;;;;;;;88.65;55.08;;;;;;;-142.75;100.00;75688.50;4974951;28;20455;-62
2023/09/09 07:18:08;;;;;;;101.50;62.70;;;;;;;-142.75;100.00;75680.63;4973955;28;20034;-63
2023/09/09 07:20:33;;;;;;;104.63;63.25;;;;;;;-142.75;100.00;75668.84;4970615;28;20025;-66
2023/09/09 07:22:59;;;;;;;102.90;65.22;;;;;;;-142.75;100.00;75676.69;5000144;23;20448;-62
2023/09/09 07:25:24;;;;;;;109.88;66.60;;;;;;;-142.75;100.00;75653.09;4997570;28;20018;-62
2023/09/09 07:27:50;;;;;;;110.40;70.05;;;;;;;-142.75;100.00;75625.53;4997568;28;20156;-62
2023/09/09 07:30:15;;;;;;;116.60;70.05;;;;;;;-142.75;100.00;75613.72;5000685;28;20026;-62
2023/09/09 07:32:41;;;;;;;108.45;67.35;;;;;;;-142.75;100.00;75599.94;4991605;28;20030;-62
2023/09/09 07:35:07;;;;;;;113.03;71.22;;;;;;;-142.75;100.00;75562.56;4992635;28;20159;-62
2023/09/09 07:37:33;;;;;;;110.20;69.43;;;;;;;-142.75;100.00;75538.94;4994183;28;20030;-62
2023/09/09 07:40:01;;;;;;;100.22;63.58;;;;;;;-142.75;100.00;75527.13;4993567;28;20100;-62
2023/09/09 07:42:26;;;;;;;101.07;64.63;;;;;;;-142.75;100.00;75542.88;4995962;28;20096;-62
2023/09/09 07:44:53;;;;;;;85.85;56.72;;;;;;;-142.75;100.00;75535.00;4997270;28;20536;-62
2023/09/09 07:47:20;;;;;;;92.00;60.38;;;;;;;-142.75;100.00;75546.81;4990207;28;20489;-62
2023/09/09 07:49:45;;;;;;;91.18;58.58;;;;;;;-142.75;100.00;75560.59;5007675;28;20041;-62
2023/09/09 07:52:11;;;;;;;88.65;57.70;;;;;;;-142.75;100.00;75560.59;4998708;28;20022;-62
2023/09/09 07:54:36;;;;;;;85.22;55.22;;;;;;;-142.75;100.00;75525.16;5008484;28;20405;-62
2023/09/09 07:57:02;;;;;;;90.25;59.83;;;;;;;-142.75;100.00;75525.16;5007812;28;20034;-62
2023/09/09 07:59:28;;;;;;;91.20;58.35;;;;;;;-142.75;100.00;75533.03;5008001;28;20422;-63
2023/09/09 08:01:54;;;;;;;87.57;56.08;;;;;;;-142.75;100.00;75517.28;5008700;28;20714;-62
2023/09/09 08:04:19;;;;;;;80.43;53.63;;;;;;;-142.75;100.00;75503.53;5008602;28;20044;-62
2023/09/09 08:06:46;;;;;;;82.90;54.05;;;;;;;-142.75;100.00;75519.25;4998675;28;20102;-62
2023/09/09 08:09:11;;;;;;;81.43;52.97;;;;;;;-142.75;100.00;75497.63;4996944;28;20026;-63
2023/09/09 08:11:37;;;;;;;75.95;51.35;;;;;;;-142.75;100.00;75503.53;4992563;28;20674;-63
2023/09/09 08:14:02;;;;;;;69.10;46.63;;;;;;;-142.75;100.00;75479.91;4994766;28;20033;-63
2023/09/09 08:16:28;;;;;;;68.38;44.92;;;;;;;-142.75;100.00;75460.22;4996136;28;20022;-64
2023/09/09 08:18:54;;;;;;;63.35;43.28;;;;;;;-142.75;100.00;75460.22;4996257;28;20470;-63
2023/09/09 08:21:20;;;;;;;57.65;39.30;;;;;;;-142.75;100.00;75499.59;4994454;28;20042;-63
2023/09/09 08:23:45;;;;;;;53.50;37.25;;;;;;;-142.75;100.00;75507.47;4990791;28;20646;-63
2023/09/09 08:26:12;;;;;;;52.97;37.65;;;;;;;-142.75;100.00;75485.81;4991576;28;20470;-63
2023/09/09 08:28:37;;;;;;;50.15;35.40;;;;;;;-142.75;100.00;75495.66;4992121;28;20053;-63
2023/09/09 08:31:03;;;;;;;50.13;35.35;;;;;;;-142.75;100.00;75470.06;4990986;28;20065;-63
2023/09/09 08:33:28;;;;;;;45.80;33.35;;;;;;;-142.75;100.00;75472.03;4989830;28;20048;-64
2023/09/09 08:36:01;;;;;;;42.60;30.77;;;;;;;-142.75;100.00;75475.97;4988850;28;20452;-63
2023/09/09 08:38:26;;;;;;;32.03;22.80;;;;;;;-142.75;100.00;75464.16;4987396;28;20039;-63
2023/09/09 08:41:21;;;;;;;27.20;19.98;;;;;;;-142.75;100.00;75456.28;5000687;28;20104;-63
2023/09/09 08:43:56;;;;;;;26.88;18.77;;;;;;;-142.75;100.00;75440.53;4970921;28;20069;-63
2023/09/09 08:46:22;;;;;;;18.85;13.43;;;;;;;-142.75;100.00;75448.41;4991751;28;20065;-63
2023/09/09 08:48:51;;;;;;;30.25;21.38;;;;;;;-142.75;100.00;75399.22;4995233;28;20085;-63
2023/09/09 08:51:19;;;;;;;36.58;25.20;;;;;;;-142.75;100.00;75383.47;4991260;28;20731;-63
2023/09/09 08:53:46;;;;;;;49.25;34.60;;;;;;;-142.75;100.00;75403.16;4991838;28;20040;-63
2023/09/09 08:56:12;;;;;;;40.05;27.75;;;;;;;-142.75;100.00;75377.56;4989535;28;20806;-63
2023/09/09 08:58:40;;;;;;;48.40;35.03;;;;;;;-142.75;100.00;75369.69;4992547;28;20444;-64
2023/09/09 09:01:06;;;;;;;51.78;36.70;;;;;;;-142.75;100.00;75381.50;4993925;28;20108;-63
2023/09/09 09:03:32;;;;;;;42.53;31.42;;;;;;;-142.75;100.00;75348.06;4989464;28;20545;-63
2023/09/09 09:05:58;;;;;;;51.83;33.85;;;;;;;-142.75;100.00;75338.22;4991567;28;20061;-62
2023/09/09 09:08:24;;;;;;;41.53;29.92;;;;;;;-142.75;100.00;75314.59;4990694;28;20030;-62
2023/09/09 09:10:49;;;;;;;33.78;24.98;;;;;;;-142.75;100.00;75312.63;4990932;28;20033;-62
2023/09/09 09:13:15;;;;;;;33.20;22.30;;;;;;;-142.75;100.00;75298.84;4991067;28;20025;-62
2023/09/09 09:15:42;;;;;;;32.65;24.00;;;;;;;-142.75;100.00;75273.28;5001780;28;20026;-62
2023/09/09 09:18:10;;;;;;;28.55;21.80;;;;;;;-142.75;100.00;75291.00;4993649;28;20033;-62
2023/09/09 09:20:36;;;;;;;25.92;18.15;;;;;;;-142.75;100.00;75283.13;4993806;28;20026;-63
2023/09/09 09:23:04;;;;;;;25.50;16.42;;;;;;;-142.75;100.00;75259.50;4994313;28;20030;-62
2023/09/09 09:25:37;;;;;;;24.90;19.27;;;;;;;-142.75;100.00;75255.56;4988702;28;20034;-62
2023/09/09 09:28:03;;;;;;;24.88;17.67;;;;;;;-142.75;100.00;75243.75;5005240;28;20026;-62
2023/09/09 09:30:29;;;;;;;20.02;15.43;;;;;;;-142.75;100.00;75220.16;5006770;28;20061;-63
2023/09/09 09:32:55;;;;;;;26.27;18.92;;;;;;;-142.75;100.00;75228.00;5004773;28;20045;-62
2023/09/09 09:35:25;;;;;;;26.88;17.08;;;;;;;-142.75;100.00;75212.28;4987411;28;20053;-62
2023/09/09 09:38:12;;;;;;;22.92;16.05;;;;;;;-142.75;96.94;75176.84;4987627;28;20034;-62
2023/09/09 09:40:38;;;;;;;20.10;15.35;;;;;;;-142.75;94.18;75188.66;4999758;28;20033;-62
2023/09/09 09:43:04;;;;;;;28.33;14.75;;;;;;;-142.75;93.86;75172.91;5005723;28;20017;-63
2023/09/09 09:45:30;;;;;;;18.83;13.95;;;;;;;-142.75;92.19;75170.94;5006921;28;20034;-62
2023/09/09 09:47:56;;;;;;;18.38;14.73;;;;;;;-142.75;90.24;75216.22;5001356;28;20028;-62
2023/09/09 09:50:30;;;;;;;18.75;14.65;;;;;;;-142.75;89.92;75218.19;4998822;28;20033;-62
2023/09/09 09:53:01;;;;;;;18.45;13.70;;;;;;;-142.75;97.36;75198.50;4987392;28;20524;-63
2023/09/09 09:55:28;;;;;;;17.67;14.00;;;;;;;-142.75;95.62;75161.13;4987425;28;20498;-62
2023/09/09 09:57:59;;;;;;;18.73;14.32;;;;;;;-142.75;93.64;75131.59;4987371;28;20053;-63
2023/09/09 10:00:26;;;;;;;19.90;15.23;;;;;;;-142.75;90.74;75117.81;4987089;28;20026;-63
2023/09/09 10:02:54;;;;;;;19.75;15.48;;;;;;;-142.75;91.13;75123.72;4992199;28;20092;-63
2023/09/09 10:05:22;;;;;;;19.63;15.40;;;;;;;-142.75;91.91;75072.56;4995201;28;20034;-63
2023/09/09 10:07:56;;;;;;;19.60;14.82;;;;;;;-142.75;90.75;75072.56;4988436;28;20041;-63
2023/09/09 10:10:23;;;;;;;20.30;15.45;;;;;;;-142.75;92.91;75046.97;4995112;28;20057;-63
2023/09/09 10:13:03;;;;;;;23.42;17.48;;;;;;;-142.75;91.65;75098.16;4998076;28;20034;-63
2023/09/09 10:15:30;;;;;;;22.00;15.82;;;;;;;-142.75;91.00;75054.84;5013161;28;20021;-63
2023/09/09 10:17:59;;;;;;;22.48;17.23;;;;;;;-142.75;89.38;75078.47;5012665;28;20405;-63
2023/09/09 10:20:24;;;;;;;18.90;15.13;;;;;;;-142.75;92.35;75046.97;5011977;28;20080;-63
2023/09/09 10:22:50;;;;;;;22.45;16.23;;;;;;;-142.75;94.01;75031.25;5012875;28;20033;-64
2023/09/09 10:25:17;;;;;;;23.13;16.35;;;;;;;-142.75;91.42;75015.50;5012247;28;20026;-63
2023/09/09 10:27:42;;;;;;;21.75;15.55;;;;;;;-142.75;89.46;75003.69;5012054;28;20021;-63
2023/09/09 10:30:08;;;;;;;19.60;14.45;;;;;;;-142.75;91.14;74997.78;5012053;28;20037;-62
2023/09/09 10:32:35;;;;;;;20.30;14.23;;;;;;;-142.75;93.92;74997.78;5012368;28;20509;-63
2023/09/09 10:35:05;;;;;;;20.98;14.82;;;;;;;-142.75;89.94;74980.06;5012631;28;20029;-63
2023/09/09 10:37:33;;;;;;;24.02;16.48;;;;;;;-142.75;87.25;74978.13;5012428;28;20025;-63
2023/09/09 10:40:00;;;;;;;20.80;16.73;;;;;;;-142.75;87.91;74995.81;5011519;28;20021;-63
2023/09/09 10:42:26;;;;;;;21.55;14.02;;;;;;;-142.75;90.66;74972.22;5006815;28;20040;-63
2023/09/09 10:44:53;;;;;;;17.92;13.68;;;;;;;-142.75;89.59;74964.34;5007976;28;20034;-62
2023/09/09 10:47:19;;;;;;;19.17;14.20;;;;;;;-142.75;89.81;74960.41;5004821;28;20022;-63